Terminal Aerodrome Forecast
Issued by NWS

Home | Current Version | Previous Version | Text Only | Print | Product List | Glossary On
Versions: 1 2 3 4 5 6 7 8 9 10 11 12 13 14 15 16 17 18 19 20 21 22 23 24 25 26
000
FTUS41 KBGM 040900 AAB
TAFITH
TAF AMD
KITH 040907Z 0409/0506 24007KT P6SM OVC015
      TEMPO 0409/0412 4SM -FZDZ BR OVC008
     FM041800 29010KT P6SM OVC025=

USA.gov is the U.S. government's official web portal to all federal, state and local government web resources and services.